createdAt,value
2017-11-26T00:00:27.063Z,0
2017-11-26T00:02:27.051Z,0
2017-11-26T00:03:27.069Z,0
2017-11-26T00:04:27.093Z,0
2017-11-26T00:05:41.783Z,0
2017-11-26T00:07:41.793Z,0
2017-11-26T00:08:41.807Z,0
2017-11-26T00:09:27.190Z,0
2017-11-26T00:10:27.165Z,0
2017-11-26T00:11:41.986Z,0
2017-11-26T00:12:26.942Z,0
2017-11-26T00:13:27.251Z,0
2017-11-26T00:14:41.915Z,0
2017-11-26T00:15:27.264Z,0
2017-11-26T00:16:41.933Z,0
2017-11-26T00:17:27.283Z,0
2017-11-26T00:18:27.311Z,0
2017-11-26T00:19:27.321Z,0
2017-11-26T00:20:27.067Z,0
2017-11-26T00:21:27.367Z,0
2017-11-26T00:22:27.094Z,0
2017-11-26T00:23:27.393Z,0
2017-11-26T00:24:27.504Z,0
2017-11-26T00:25:27.374Z,0
2017-11-26T00:26:27.446Z,0
2017-11-26T00:27:42.095Z,0
2017-11-26T00:28:42.091Z,0
2017-11-26T00:31:27.244Z,0
2017-11-26T00:33:27.273Z,0
2017-11-26T00:34:27.301Z,0
2017-11-26T00:35:27.579Z,0
2017-11-26T00:36:42.215Z,0
2017-11-26T00:37:27.578Z,0
2017-11-26T00:38:42.246Z,0
2017-11-26T00:39:27.635Z,0
2017-11-26T00:42:27.661Z,0
2017-11-26T00:43:42.061Z,0
2017-11-26T00:44:42.115Z,0
2017-11-26T00:45:27.694Z,0
2017-11-26T00:46:27.721Z,0
2017-11-26T00:47:27.748Z,0
2017-11-26T00:48:27.728Z,0
2017-11-26T00:49:27.735Z,0
2017-11-26T00:50:42.455Z,0
2017-11-26T00:51:27.806Z,0
2017-11-26T00:52:27.810Z,0
2017-11-26T00:53:27.828Z,0
2017-11-26T00:54:27.566Z,0
2017-11-26T00:55:27.608Z,0
2017-11-26T00:56:27.878Z,0
2017-11-26T00:57:27.869Z,0
2017-11-26T00:58:27.916Z,0
2017-11-26T00:59:42.582Z,0
2017-11-26T01:00:27.960Z,0
2017-11-26T01:01:27.931Z,0
2017-11-26T01:02:27.954Z,0
2017-11-26T01:03:28.005Z,0
2017-11-26T01:04:27.979Z,0
2017-11-26T01:05:28.043Z,0
2017-11-26T01:06:28.039Z,0
2017-11-26T01:07:27.768Z,0
2017-11-26T01:08:28.189Z,0
2017-11-26T01:09:27.797Z,0
2017-11-26T01:10:28.076Z,0
2017-11-26T01:12:28.093Z,0
2017-11-26T01:13:28.112Z,0
2017-11-26T01:14:42.806Z,0
2017-11-26T01:15:28.184Z,0
2017-11-26T01:16:28.144Z,0
2017-11-26T01:17:28.196Z,0
2017-11-26T01:18:28.205Z,0
2017-11-26T01:19:28.236Z,0
2017-11-26T01:21:28.226Z,0
2017-11-26T01:22:28.032Z,0
2017-11-26T01:23:28.285Z,0
2017-11-26T01:24:28.302Z,0
2017-11-26T01:25:42.970Z,0
2017-11-26T01:27:28.043Z,0
2017-11-26T01:28:28.362Z,0
2017-11-26T01:29:28.364Z,0
2017-11-26T01:30:28.422Z,0
2017-11-26T01:31:28.417Z,0
2017-11-26T01:32:28.425Z,0
2017-11-26T01:33:28.510Z,0
2017-11-26T01:34:28.436Z,0
2017-11-26T01:35:28.446Z,0
2017-11-26T01:36:28.476Z,0
2017-11-26T01:37:28.503Z,0
2017-11-26T01:38:28.550Z,0
2017-11-26T01:39:43.163Z,0
2017-11-26T01:41:28.565Z,0
2017-11-26T01:42:28.557Z,0
2017-11-26T01:43:28.583Z,0
2017-11-26T01:44:28.600Z,0
2017-11-26T01:45:28.582Z,0
2017-11-26T01:46:43.297Z,0
2017-11-26T01:47:28.651Z,0
2017-11-26T01:48:43.076Z,0
2017-11-26T01:49:28.669Z,0
2017-11-26T01:50:28.723Z,0
2017-11-26T01:51:28.751Z,0
2017-11-26T01:52:43.387Z,0
2017-11-26T01:54:43.432Z,0
2017-11-26T01:55:28.769Z,0
2017-11-26T01:56:28.766Z,0
2017-11-26T01:57:28.792Z,0
2017-11-26T01:58:28.795Z,0
2017-11-26T01:59:28.828Z,0
2017-11-26T02:00:28.821Z,0
2017-11-26T02:01:43.508Z,0
2017-11-26T02:02:43.535Z,0
2017-11-26T02:03:28.909Z,0
2017-11-26T02:04:28.384Z,0
2017-11-26T02:05:28.663Z,0
2017-11-26T02:06:43.593Z,0
2017-11-26T02:07:28.945Z,0
2017-11-26T02:08:28.983Z,0
2017-11-26T02:09:28.979Z,0
2017-11-26T02:10:29.030Z,0
2017-11-26T02:11:29.020Z,0
2017-11-26T02:12:28.992Z,0
2017-11-26T02:13:29.014Z,0
2017-11-26T02:14:29.048Z,0
2017-11-26T02:15:29.084Z,0
2017-11-26T02:16:29.083Z,0
2017-11-26T02:17:29.076Z,0
2017-11-26T02:18:43.767Z,0
2017-11-26T02:19:29.112Z,0
2017-11-26T02:20:28.624Z,0
2017-11-26T02:22:28.893Z,0
2017-11-26T02:23:29.162Z,0
2017-11-26T02:24:29.173Z,0
2017-11-26T02:25:29.196Z,0
2017-11-26T02:26:29.213Z,0
2017-11-26T02:27:43.923Z,0
2017-11-26T02:28:29.241Z,0
2017-11-26T02:30:29.033Z,0
2017-11-26T02:31:29.305Z,0
2017-11-26T02:32:29.293Z,0
2017-11-26T02:33:29.361Z,0
2017-11-26T02:34:44.037Z,0
2017-11-26T02:35:29.353Z,0
2017-11-26T02:36:29.344Z,0
2017-11-26T02:37:29.382Z,0
2017-11-26T02:38:44.089Z,0
2017-11-26T02:39:29.454Z,0
2017-11-26T02:40:29.459Z,0
2017-11-26T02:41:29.440Z,0
2017-11-26T02:42:29.519Z,0
2017-11-26T02:43:29.209Z,0
2017-11-26T02:44:29.517Z,0
2017-11-26T02:45:29.563Z,0
2017-11-26T02:46:29.256Z,0
2017-11-26T02:47:29.556Z,0
2017-11-26T02:48:29.559Z,0
2017-11-26T02:49:44.240Z,0
2017-11-26T02:50:29.587Z,0
2017-11-26T02:51:29.611Z,0
2017-11-26T02:52:29.598Z,0
2017-11-26T02:53:29.371Z,0
2017-11-26T02:54:29.628Z,0
2017-11-26T02:55:29.696Z,0
2017-11-26T02:57:29.814Z,0
2017-11-26T02:58:29.705Z,0
2017-11-26T02:59:29.699Z,0
2017-11-26T03:00:29.691Z,0
2017-11-26T03:01:29.712Z,0
2017-11-26T03:02:29.741Z,0
2017-11-26T03:03:29.777Z,0
2017-11-26T03:04:29.797Z,0
2017-11-26T03:05:29.764Z,0
2017-11-26T03:06:29.815Z,0
2017-11-26T03:07:29.835Z,0
2017-11-26T03:08:29.843Z,0
2017-11-26T03:09:29.904Z,0
2017-11-26T03:10:29.629Z,0
2017-11-26T03:11:29.915Z,0
2017-11-26T03:12:29.883Z,0
2017-11-26T03:13:29.919Z,0
2017-11-26T03:14:29.893Z,0
2017-11-26T03:15:29.927Z,0
2017-11-26T03:16:30.014Z,0
2017-11-26T03:17:29.973Z,0
2017-11-26T03:18:30.004Z,0
2017-11-26T03:19:44.694Z,0
2017-11-26T03:20:30.000Z,0
2017-11-26T03:21:44.722Z,0
2017-11-26T03:22:30.040Z,0
2017-11-26T03:23:30.069Z,0
2017-11-26T03:24:29.808Z,0
2017-11-26T03:25:29.816Z,0
2017-11-26T03:26:29.854Z,0
2017-11-26T03:27:30.129Z,0
2017-11-26T03:28:44.528Z,0
2017-11-26T03:29:30.132Z,0
2017-11-26T03:30:30.139Z,0
2017-11-26T03:31:30.226Z,0
2017-11-26T03:32:30.197Z,0
2017-11-26T03:33:30.170Z,0
2017-11-26T03:34:30.266Z,0
2017-11-26T03:35:44.914Z,0
2017-11-26T03:36:30.262Z,0
2017-11-26T03:37:44.930Z,0
2017-11-26T03:38:30.111Z,0
2017-11-26T03:39:30.418Z,0
2017-11-26T03:40:30.065Z,0
2017-11-26T03:41:30.310Z,0
2017-11-26T03:42:30.340Z,0
2017-11-26T03:43:30.330Z,0
2017-11-26T03:44:30.077Z,0
2017-11-26T03:45:30.376Z,0
2017-11-26T03:46:30.397Z,0
2017-11-26T03:47:30.443Z,0
2017-11-26T03:48:45.066Z,0
2017-11-26T03:49:30.427Z,0
2017-11-26T03:50:30.457Z,0
2017-11-26T03:51:30.472Z,0
2017-11-26T03:52:30.491Z,0
2017-11-26T03:53:45.199Z,0
2017-11-26T03:55:30.533Z,0
2017-11-26T03:56:30.546Z,0
2017-11-26T03:57:45.211Z,0
2017-11-26T03:58:45.240Z,0
2017-11-26T03:59:30.566Z,0
2017-11-26T04:00:30.627Z,0
2017-11-26T04:01:30.631Z,0
2017-11-26T04:02:30.588Z,0
2017-11-26T04:03:45.280Z,0
2017-11-26T04:04:30.662Z,0
2017-11-26T04:05:30.683Z,0
2017-11-26T04:06:30.692Z,0
2017-11-26T04:07:30.676Z,0
2017-11-26T04:08:30.744Z,0
2017-11-26T04:09:45.494Z,0
2017-11-26T04:10:45.447Z,0
2017-11-26T04:11:30.768Z,0
2017-11-26T04:13:30.761Z,0
2017-11-26T04:14:30.813Z,0
2017-11-26T04:15:30.812Z,0
2017-11-26T04:16:30.812Z,0
2017-11-26T04:17:30.830Z,0
2017-11-26T04:18:30.852Z,0
2017-11-26T04:19:30.885Z,0
2017-11-26T04:20:30.870Z,0
2017-11-26T04:21:30.900Z,0
2017-11-26T04:22:30.922Z,0
2017-11-26T04:23:30.927Z,0
2017-11-26T04:24:45.626Z,0
2017-11-26T04:25:30.971Z,0
2017-11-26T04:26:30.969Z,0
2017-11-26T04:27:30.971Z,0
2017-11-26T04:28:30.959Z,0
2017-11-26T04:29:31.048Z,0
2017-11-26T04:30:31.008Z,0
2017-11-26T04:31:31.053Z,0
2017-11-26T04:32:31.089Z,0
2017-11-26T04:33:30.813Z,0
2017-11-26T04:34:31.118Z,0
2017-11-26T04:35:31.096Z,0
2017-11-26T04:37:31.089Z,0
2017-11-26T04:38:31.167Z,0
2017-11-26T04:39:31.146Z,0
2017-11-26T04:40:31.180Z,0
2017-11-26T04:41:31.167Z,0
2017-11-26T04:42:30.926Z,0
2017-11-26T04:44:31.186Z,0
2017-11-26T04:45:31.003Z,0
2017-11-26T04:46:31.269Z,0
2017-11-26T04:47:31.237Z,0
2017-11-26T04:48:31.333Z,0
2017-11-26T04:49:31.286Z,0
2017-11-26T04:50:31.321Z,0
2017-11-26T04:51:31.333Z,0
2017-11-26T04:52:31.437Z,0
2017-11-26T04:53:31.373Z,0
2017-11-26T04:54:31.136Z,0
2017-11-26T04:55:31.407Z,0
2017-11-26T04:56:45.790Z,0
2017-11-26T04:57:31.416Z,0
2017-11-26T04:58:31.412Z,0
2017-11-26T04:59:31.436Z,0
2017-11-26T05:00:31.470Z,0
2017-11-26T05:01:31.503Z,0
2017-11-26T05:02:31.470Z,0
2017-11-26T05:03:31.504Z,0
2017-11-26T05:04:31.513Z,0
2017-11-26T05:05:46.214Z,0
2017-11-26T05:06:31.561Z,0
2017-11-26T05:07:31.287Z,0
2017-11-26T05:08:31.304Z,0
2017-11-26T05:09:46.258Z,0
2017-11-26T05:10:31.570Z,0
2017-11-26T05:11:31.627Z,0
2017-11-26T05:12:46.256Z,0
2017-11-26T05:13:31.606Z,0
2017-11-26T05:14:46.317Z,0
2017-11-26T05:15:31.627Z,0
2017-11-26T05:16:31.384Z,0
2017-11-26T05:17:31.676Z,0
2017-11-26T05:18:31.710Z,0
2017-11-26T05:19:46.383Z,0
2017-11-26T05:20:31.746Z,0
2017-11-26T05:21:31.726Z,0
2017-11-26T05:22:31.767Z,0
2017-11-26T05:23:31.790Z,0
2017-11-26T05:24:31.770Z,0
2017-11-26T05:25:46.476Z,0
2017-11-26T05:26:31.815Z,0
2017-11-26T05:27:31.829Z,0
2017-11-26T05:29:31.866Z,0
2017-11-26T05:30:31.861Z,0
2017-11-26T05:31:31.889Z,0
2017-11-26T05:32:31.878Z,0
2017-11-26T05:33:31.876Z,0
2017-11-26T05:34:31.935Z,0
2017-11-26T05:35:31.958Z,0
2017-11-26T05:36:31.714Z,0
2017-11-26T05:37:31.973Z,0
2017-11-26T05:38:31.969Z,0
2017-11-26T05:39:31.738Z,0
2017-11-26T05:40:31.757Z,0
2017-11-26T05:41:32.022Z,0
2017-11-26T05:42:31.893Z,0
2017-11-26T05:43:46.711Z,0
2017-11-26T05:44:46.718Z,0
2017-11-26T05:45:32.058Z,0
2017-11-26T05:46:32.097Z,0
2017-11-26T05:47:32.080Z,0
2017-11-26T05:48:31.871Z,0
2017-11-26T05:49:32.127Z,0
2017-11-26T05:50:31.908Z,0
2017-11-26T05:51:32.161Z,0
2017-11-26T05:52:32.170Z,0
2017-11-26T05:53:46.864Z,0
2017-11-26T05:54:31.934Z,0
2017-11-26T05:56:32.241Z,0
2017-11-26T05:57:32.254Z,0
2017-11-26T05:58:32.308Z,0
2017-11-26T05:59:46.938Z,0
2017-11-26T06:00:32.313Z,0
2017-11-26T06:01:46.688Z,0
2017-11-26T06:02:32.324Z,0
2017-11-26T06:03:32.051Z,0
2017-11-26T06:04:47.038Z,0
2017-11-26T06:05:32.365Z,0
2017-11-26T06:06:32.381Z,0
2017-11-26T06:07:32.377Z,4
2017-11-26T06:08:32.441Z,4
2017-11-26T06:10:47.089Z,4
2017-11-26T06:12:32.469Z,8
2017-11-26T06:13:32.205Z,4
2017-11-26T06:14:32.499Z,8
2017-11-26T06:15:32.490Z,8
2017-11-26T06:16:32.627Z,8
2017-11-26T06:17:32.536Z,8
2017-11-26T06:18:32.552Z,12
2017-11-26T06:19:32.539Z,12
2017-11-26T06:20:32.556Z,16
2017-11-26T06:21:32.624Z,20
2017-11-26T06:22:32.325Z,24
2017-11-26T06:23:32.622Z,24
2017-11-26T06:24:32.611Z,32
2017-11-26T06:25:47.314Z,36
2017-11-26T06:26:32.648Z,44
2017-11-26T06:27:32.631Z,48
2017-11-26T06:28:47.350Z,60
2017-11-26T06:29:32.687Z,64
2017-11-26T06:30:47.393Z,72
2017-11-26T06:31:47.381Z,80
2017-11-26T06:32:32.517Z,88
2017-11-26T06:33:32.753Z,96
2017-11-26T06:34:32.840Z,108
2017-11-26T06:35:32.774Z,124
2017-11-26T06:36:32.801Z,128
2017-11-26T06:37:32.915Z,140
2017-11-26T06:38:32.559Z,140
2017-11-26T06:39:32.579Z,132
2017-11-26T06:40:32.861Z,128
2017-11-26T06:41:32.909Z,140
2017-11-26T06:42:32.897Z,136
2017-11-26T06:43:32.662Z,120
2017-11-26T06:44:47.588Z,116
2017-11-26T06:45:32.900Z,112
2017-11-26T06:46:32.938Z,116
2017-11-26T06:47:47.615Z,128
2017-11-26T06:48:32.973Z,128
2017-11-26T06:49:32.949Z,136
2017-11-26T06:50:32.971Z,140
2017-11-26T06:51:32.993Z,160
2017-11-26T06:52:33.044Z,160
2017-11-26T06:53:32.997Z,160
2017-11-26T06:54:33.032Z,168
2017-11-26T06:55:33.108Z,176
2017-11-26T06:56:33.052Z,184
2017-11-26T06:57:33.095Z,180
2017-11-26T06:58:33.108Z,196
2017-11-26T07:01:33.169Z,228
2017-11-26T07:02:33.173Z,260
2017-11-26T07:03:47.831Z,316
2017-11-26T07:04:33.182Z,356
2017-11-26T07:06:33.221Z,344
2017-11-26T07:07:33.256Z,368
2017-11-26T07:08:33.233Z,368
2017-11-26T07:09:33.304Z,372
2017-11-26T07:10:33.285Z,428
2017-11-26T07:11:33.313Z,412
2017-11-26T07:12:47.938Z,356
2017-11-26T07:13:33.281Z,352
2017-11-26T07:15:33.350Z,388
2017-11-26T07:16:48.039Z,424
2017-11-26T07:17:33.375Z,440
2017-11-26T07:18:33.401Z,476
2017-11-26T07:19:47.821Z,516
2017-11-26T07:20:33.409Z,524
2017-11-26T07:21:33.441Z,540
2017-11-26T07:22:33.431Z,564
2017-11-26T07:24:33.481Z,672
2017-11-26T07:25:48.148Z,668
2017-11-26T07:26:33.504Z,664
2017-11-26T07:27:33.526Z,712
2017-11-26T07:28:33.539Z,864
2017-11-26T07:29:33.277Z,988
2017-11-26T07:30:48.196Z,1244
2017-11-26T07:31:33.537Z,1476
2017-11-26T07:32:33.581Z,1776
2017-11-26T07:33:33.626Z,2068
2017-11-26T07:35:02.930Z,2348
2017-11-26T07:35:33.645Z,2460
2017-11-26T07:37:48.301Z,2968
2017-11-26T07:38:33.704Z,3020
2017-11-26T07:40:33.456Z,3076
2017-11-26T07:41:33.704Z,3052
2017-11-26T07:43:33.728Z,2912
2017-11-26T07:44:33.776Z,3464
2017-11-26T07:45:33.806Z,3940
2017-11-26T07:46:33.817Z,3480
2017-11-26T07:47:33.786Z,3860
2017-11-26T07:48:33.805Z,4172
2017-11-26T07:49:33.938Z,3080
2017-11-26T07:50:33.837Z,2736
2017-11-26T07:51:33.860Z,2912
2017-11-26T07:52:33.645Z,2528
2017-11-26T07:53:33.915Z,1884
2017-11-26T07:54:33.997Z,1620
2017-11-26T07:55:33.927Z,1624
2017-11-26T07:56:33.929Z,1528
2017-11-26T07:57:33.725Z,1864
2017-11-26T07:58:33.972Z,1920
2017-11-26T07:59:34.012Z,1620
2017-11-26T08:00:33.983Z,1444
2017-11-26T08:01:34.047Z,1316
2017-11-26T08:02:34.017Z,1288
2017-11-26T08:03:34.046Z,1388
2017-11-26T08:04:34.043Z,1352
2017-11-26T08:05:34.153Z,1328
2017-11-26T08:06:48.736Z,1208
2017-11-26T08:07:34.072Z,1140
2017-11-26T08:08:34.096Z,1100
2017-11-26T08:09:48.800Z,1116
2017-11-26T08:10:34.131Z,1160
2017-11-26T08:11:34.142Z,1296
2017-11-26T08:12:34.133Z,1400
2017-11-26T08:13:33.935Z,1636
2017-11-26T08:14:34.207Z,1708
2017-11-26T08:15:34.223Z,1924
2017-11-26T08:16:34.228Z,2236
2017-11-26T08:17:34.226Z,2936
2017-11-26T08:18:34.298Z,4708
2017-11-26T08:19:34.296Z,5616
2017-11-26T08:20:34.276Z,6268
2017-11-26T08:21:34.312Z,6528
2017-11-26T08:22:48.961Z,6640
2017-11-26T08:23:34.459Z,6416
2017-11-26T08:24:49.032Z,6252
2017-11-26T08:25:49.027Z,6536
2017-11-26T08:26:34.379Z,6828
2017-11-26T08:27:34.379Z,7140
2017-11-26T08:28:34.388Z,7328
2017-11-26T08:29:34.384Z,6712
2017-11-26T08:30:34.423Z,6448
2017-11-26T08:31:34.582Z,6964
2017-11-26T08:32:34.486Z,6712
2017-11-26T08:33:34.493Z,6984
2017-11-26T08:34:34.486Z,6376
2017-11-26T08:36:34.511Z,6804
2017-11-26T08:37:34.503Z,5960
2017-11-26T08:38:48.968Z,5760
2017-11-26T08:39:34.580Z,6508
2017-11-26T08:40:34.601Z,6660
2017-11-26T08:41:34.615Z,6676
2017-11-26T08:42:34.593Z,6772
2017-11-26T08:43:34.370Z,6584
2017-11-26T08:44:49.325Z,6856
2017-11-26T08:45:34.387Z,6800
2017-11-26T08:46:34.666Z,6840
2017-11-26T08:47:34.663Z,6924
2017-11-26T08:48:34.689Z,7092
2017-11-26T08:49:34.746Z,7012
2017-11-26T08:50:34.849Z,7004
2017-11-26T08:51:34.219Z,7656
2017-11-26T08:52:34.788Z,8496
2017-11-26T08:53:34.820Z,9792
2017-11-26T08:54:49.196Z,7512
2017-11-26T08:55:34.812Z,5944
2017-11-26T08:56:34.558Z,4720
2017-11-26T08:58:34.605Z,3804
2017-11-26T08:59:49.287Z,3572
2017-11-26T09:00:34.623Z,3560
2017-11-26T09:01:49.307Z,3408
2017-11-26T09:02:34.973Z,3236
2017-11-26T09:03:34.944Z,3276
2017-11-26T09:04:34.927Z,3404
2017-11-26T09:05:34.964Z,3548
2017-11-26T09:06:35.004Z,3468
2017-11-26T09:07:49.676Z,3500
2017-11-26T09:08:35.067Z,3320
2017-11-26T09:10:04.357Z,3212
2017-11-26T09:10:35.039Z,3280
2017-11-26T09:11:34.831Z,3168
2017-11-26T09:12:35.076Z,3128
2017-11-26T09:13:35.103Z,3164
2017-11-26T09:14:35.085Z,3228
2017-11-26T09:15:35.139Z,3436
2017-11-26T09:16:35.139Z,3396
2017-11-26T09:17:49.800Z,3524
2017-11-26T09:18:49.839Z,3544
2017-11-26T09:19:35.208Z,3776
2017-11-26T09:20:35.211Z,4300
2017-11-26T09:21:35.221Z,4808
2017-11-26T09:22:35.229Z,4840
2017-11-26T09:23:34.721Z,4668
2017-11-26T09:24:49.672Z,4884
2017-11-26T09:25:35.284Z,4908
2017-11-26T09:26:35.039Z,4800
2017-11-26T09:27:49.961Z,4592
2017-11-26T09:28:35.374Z,4476
2017-11-26T09:29:35.130Z,4064
2017-11-26T09:30:50.049Z,3640
2017-11-26T09:31:35.107Z,3624
2017-11-26T09:32:35.408Z,3688
2017-11-26T09:33:35.432Z,3744
2017-11-26T09:34:35.455Z,3880
2017-11-26T09:35:35.493Z,4008
2017-11-26T09:36:35.181Z,3840
2017-11-26T09:37:35.492Z,3476
2017-11-26T09:38:35.470Z,3216
2017-11-26T09:39:35.512Z,3076
2017-11-26T09:40:35.248Z,3020
2017-11-26T09:41:50.180Z,2916
2017-11-26T09:42:49.969Z,2852
2017-11-26T09:43:35.560Z,2692
2017-11-26T09:44:35.576Z,2492
2017-11-26T09:45:35.604Z,2388
2017-11-26T09:46:35.600Z,2328
2017-11-26T09:47:35.363Z,2292
2017-11-26T09:48:35.378Z,2388
2017-11-26T09:49:35.642Z,2316
2017-11-26T09:50:35.428Z,2340
2017-11-26T09:51:35.709Z,2644
2017-11-26T09:52:35.736Z,2952
2017-11-26T09:53:35.722Z,3328
2017-11-26T09:54:35.710Z,3904
2017-11-26T09:55:35.514Z,4576
2017-11-26T09:56:35.514Z,5512
2017-11-26T09:57:50.474Z,5052
2017-11-26T09:58:35.804Z,4740
2017-11-26T09:59:35.808Z,4732
2017-11-26T10:00:35.812Z,4652
2017-11-26T10:01:35.873Z,4012
2017-11-26T10:02:35.871Z,3288
2017-11-26T10:03:50.308Z,2448
2017-11-26T10:04:35.890Z,2296
2017-11-26T10:05:35.958Z,2308
2017-11-26T10:06:50.638Z,2140
2017-11-26T10:07:35.940Z,1892
2017-11-26T10:08:35.975Z,1888
2017-11-26T10:09:36.007Z,1848
2017-11-26T10:10:36.030Z,1824
2017-11-26T10:11:36.001Z,1768
2017-11-26T10:12:36.052Z,1692
2017-11-26T10:13:50.709Z,1624
2017-11-26T10:14:36.079Z,1552
2017-11-26T10:15:36.092Z,1444
2017-11-26T10:16:50.738Z,1348
2017-11-26T10:17:35.845Z,1360
2017-11-26T10:18:36.133Z,1380
2017-11-26T10:19:36.179Z,1288
2017-11-26T10:20:36.156Z,1260
2017-11-26T10:21:36.164Z,1388
2017-11-26T10:22:36.190Z,1536
2017-11-26T10:23:36.195Z,1684
2017-11-26T10:24:36.222Z,1784
2017-11-26T10:25:36.203Z,1844
2017-11-26T10:26:36.273Z,1892
2017-11-26T10:27:36.317Z,2128
2017-11-26T10:28:36.299Z,2604
2017-11-26T10:29:50.961Z,3180
2017-11-26T10:30:36.307Z,3248
2017-11-26T10:31:36.313Z,3484
2017-11-26T10:32:51.015Z,3584
2017-11-26T10:33:36.377Z,3536
2017-11-26T10:34:36.373Z,3484
2017-11-26T10:35:36.435Z,3628
2017-11-26T10:36:36.441Z,3820
2017-11-26T10:37:36.436Z,4048
2017-11-26T10:38:36.440Z,3892
2017-11-26T10:39:36.431Z,3796
2017-11-26T10:40:36.215Z,3760
2017-11-26T10:41:36.502Z,3584
2017-11-26T10:42:36.493Z,3484
2017-11-26T10:43:36.516Z,3468
2017-11-26T10:44:51.203Z,3268
2017-11-26T10:45:51.197Z,3032
2017-11-26T10:46:36.319Z,3080
2017-11-26T10:47:36.593Z,3244
2017-11-26T10:48:36.602Z,3420
2017-11-26T10:49:36.735Z,3812
2017-11-26T10:50:51.292Z,4140
2017-11-26T10:51:36.680Z,4432
2017-11-26T10:53:36.653Z,4564
2017-11-26T10:54:51.451Z,4740
2017-11-26T10:55:51.387Z,4796
2017-11-26T10:57:36.746Z,5056
2017-11-26T10:58:36.507Z,5084
2017-11-26T10:59:36.839Z,5060
2017-11-26T11:01:36.785Z,4676
2017-11-26T11:02:51.248Z,4772
2017-11-26T11:03:36.876Z,4912
2017-11-26T11:04:36.874Z,4904
2017-11-26T11:05:36.610Z,4784
2017-11-26T11:07:36.970Z,4736
2017-11-26T11:08:36.955Z,4760
2017-11-26T11:09:36.944Z,4988
2017-11-26T11:10:51.649Z,4728
2017-11-26T11:11:37.017Z,4676
2017-11-26T11:12:37.028Z,4864
2017-11-26T11:13:37.048Z,5260
2017-11-26T11:14:37.035Z,5452
2017-11-26T11:15:37.054Z,5104
2017-11-26T11:16:51.752Z,4704
2017-11-26T11:17:37.078Z,4544
2017-11-26T11:18:37.127Z,3964
2017-11-26T11:19:36.854Z,3836
2017-11-26T11:20:51.798Z,4092
2017-11-26T11:21:37.186Z,4140
2017-11-26T11:22:37.174Z,4464
2017-11-26T11:23:37.207Z,4624
2017-11-26T11:24:37.175Z,4832
2017-11-26T11:25:36.941Z,5648
2017-11-26T11:26:37.223Z,4984
2017-11-26T11:27:51.912Z,4720
2017-11-26T11:28:37.244Z,4588
2017-11-26T11:29:37.027Z,4420
2017-11-26T11:30:37.117Z,4496
2017-11-26T11:31:37.328Z,4368
2017-11-26T11:32:52.014Z,3736
2017-11-26T11:33:37.338Z,3496
2017-11-26T11:34:37.124Z,3720
2017-11-26T11:35:37.404Z,3800
2017-11-26T11:36:37.173Z,3688
2017-11-26T11:37:37.424Z,3760
2017-11-26T11:38:37.463Z,3512
2017-11-26T11:39:37.456Z,3284
2017-11-26T11:40:37.197Z,2948
2017-11-26T11:41:37.206Z,2776
2017-11-26T11:42:37.212Z,2912
2017-11-26T11:43:37.519Z,2904
2017-11-26T11:44:37.519Z,2872
2017-11-26T11:45:37.280Z,2784
2017-11-26T11:46:37.071Z,2976
2017-11-26T11:47:37.567Z,2888
2017-11-26T11:48:52.286Z,2884
2017-11-26T11:49:52.034Z,3096
2017-11-26T11:50:37.663Z,3708
2017-11-26T11:51:37.667Z,4824
2017-11-26T11:52:37.638Z,4696
2017-11-26T11:53:52.553Z,3856
2017-11-26T11:54:37.685Z,3616
2017-11-26T11:55:37.747Z,4532
2017-11-26T11:56:37.774Z,3620
2017-11-26T11:57:37.769Z,3592
2017-11-26T11:58:52.446Z,3812
2017-11-26T11:59:37.792Z,3868
2017-11-26T12:00:37.817Z,3716
2017-11-26T12:01:52.465Z,4080
2017-11-26T12:02:37.870Z,4672
2017-11-26T12:03:37.857Z,4672
2017-11-26T12:04:52.539Z,4292
2017-11-26T12:05:37.895Z,4608
2017-11-26T12:06:37.900Z,4264
2017-11-26T12:07:37.658Z,4316
2017-11-26T12:08:37.958Z,4340
2017-11-26T12:09:37.929Z,4264
2017-11-26T12:10:37.955Z,4096
2017-11-26T12:11:38.024Z,4056
2017-11-26T12:12:38.039Z,3780
2017-11-26T12:13:52.669Z,3728
2017-11-26T12:14:38.114Z,3672
2017-11-26T12:15:37.821Z,3636
2017-11-26T12:16:38.105Z,3828
2017-11-26T12:17:37.815Z,3652
2017-11-26T12:18:38.107Z,3444
2017-11-26T12:19:52.767Z,3340
2017-11-26T12:20:38.149Z,3344
2017-11-26T12:21:38.179Z,3424
2017-11-26T12:22:38.208Z,3436
2017-11-26T12:23:52.852Z,3112
2017-11-26T12:24:38.219Z,2976
2017-11-26T12:25:38.238Z,3004
2017-11-26T12:26:38.239Z,2924
2017-11-26T12:27:38.262Z,2868
2017-11-26T12:28:38.288Z,2676
2017-11-26T12:29:38.325Z,2540
2017-11-26T12:30:38.378Z,2508
2017-11-26T12:31:38.320Z,2468
2017-11-26T12:32:38.369Z,2412
2017-11-26T12:33:38.371Z,2240
2017-11-26T12:34:38.369Z,1944
2017-11-26T12:35:38.397Z,1912
2017-11-26T12:36:38.160Z,1952
2017-11-26T12:37:38.144Z,2036
2017-11-26T12:38:38.444Z,1876
2017-11-26T12:39:38.191Z,1672
2017-11-26T12:40:37.967Z,1592
2017-11-26T12:41:38.465Z,1808
2017-11-26T12:42:38.248Z,1860
2017-11-26T12:43:53.210Z,1432
2017-11-26T12:44:38.544Z,1208
2017-11-26T12:45:38.326Z,1144
2017-11-26T12:46:53.248Z,1080
2017-11-26T12:47:38.588Z,1112
2017-11-26T12:48:38.382Z,1380
2017-11-26T12:49:38.613Z,1472
2017-11-26T12:50:38.656Z,1484
2017-11-26T12:51:53.325Z,1452
2017-11-26T12:53:38.668Z,1444
2017-11-26T12:54:38.725Z,1344
2017-11-26T12:55:38.739Z,1292
2017-11-26T12:56:53.412Z,1232
2017-11-26T12:57:53.432Z,1024
2017-11-26T12:58:38.801Z,912
2017-11-26T12:59:38.831Z,824
2017-11-26T13:00:53.513Z,808
2017-11-26T13:02:38.863Z,892
2017-11-26T13:03:38.865Z,856
2017-11-26T13:04:38.640Z,824
2017-11-26T13:05:38.890Z,748
2017-11-26T13:06:53.562Z,692
2017-11-26T13:07:53.608Z,676
2017-11-26T13:08:38.955Z,664
2017-11-26T13:09:38.982Z,596
2017-11-26T13:10:53.674Z,564
2017-11-26T13:11:53.658Z,496
2017-11-26T13:12:39.042Z,496
2017-11-26T13:13:39.042Z,520
2017-11-26T13:14:38.812Z,576
2017-11-26T13:15:39.077Z,636
2017-11-26T13:16:53.501Z,744
2017-11-26T13:17:53.768Z,816
2017-11-26T13:18:39.130Z,920
2017-11-26T13:19:53.536Z,1084
2017-11-26T13:20:38.904Z,1080
2017-11-26T13:21:53.831Z,920
2017-11-26T13:22:39.181Z,780
2017-11-26T13:23:53.884Z,668
2017-11-26T13:24:39.217Z,660
2017-11-26T13:25:39.215Z,652
2017-11-26T13:26:39.245Z,732
2017-11-26T13:27:39.253Z,836
2017-11-26T13:28:39.270Z,740
2017-11-26T13:29:39.287Z,740
2017-11-26T13:30:39.313Z,824
2017-11-26T13:31:54.016Z,1076
2017-11-26T13:32:39.335Z,1084
2017-11-26T13:33:54.000Z,1060
2017-11-26T13:34:38.860Z,1064
2017-11-26T13:35:39.503Z,968
2017-11-26T13:36:39.435Z,864
2017-11-26T13:37:39.445Z,740
2017-11-26T13:38:39.197Z,692
2017-11-26T13:39:53.884Z,752
2017-11-26T13:40:53.887Z,924
2017-11-26T13:41:39.222Z,872
2017-11-26T13:42:39.222Z,840
2017-11-26T13:43:39.540Z,704
2017-11-26T13:44:39.533Z,656
2017-11-26T13:45:39.653Z,580
2017-11-26T13:46:39.570Z,484
2017-11-26T13:47:39.361Z,488
2017-11-26T13:48:39.604Z,512
2017-11-26T13:49:39.608Z,540
2017-11-26T13:50:39.670Z,664
2017-11-26T13:51:39.678Z,632
2017-11-26T13:52:39.679Z,624
2017-11-26T13:53:39.661Z,580
2017-11-26T13:54:54.356Z,660
2017-11-26T13:55:39.757Z,744
2017-11-26T13:56:39.733Z,824
2017-11-26T13:57:39.538Z,848
2017-11-26T13:58:39.815Z,864
2017-11-26T13:59:39.807Z,820
2017-11-26T14:00:39.838Z,784
2017-11-26T14:01:39.834Z,780
2017-11-26T14:02:39.859Z,804
2017-11-26T14:03:54.524Z,772
2017-11-26T14:04:39.909Z,672
2017-11-26T14:05:39.884Z,512
2017-11-26T14:06:39.925Z,396
2017-11-26T14:07:39.897Z,336
2017-11-26T14:08:54.611Z,360
2017-11-26T14:10:40.006Z,492
2017-11-26T14:11:39.990Z,604
2017-11-26T14:12:40.012Z,656
2017-11-26T14:13:40.045Z,628
2017-11-26T14:14:40.104Z,552
2017-11-26T14:15:40.092Z,452
2017-11-26T14:16:40.082Z,408
2017-11-26T14:17:40.137Z,412
2017-11-26T14:18:40.101Z,380
2017-11-26T14:19:40.116Z,316
2017-11-26T14:20:39.624Z,304
2017-11-26T14:21:40.157Z,348
2017-11-26T14:22:40.202Z,336
2017-11-26T14:23:40.158Z,356
2017-11-26T14:24:54.884Z,292
2017-11-26T14:25:40.216Z,300
2017-11-26T14:27:09.567Z,296
2017-11-26T14:27:40.287Z,316
2017-11-26T14:28:40.271Z,336
2017-11-26T14:29:40.291Z,372
2017-11-26T14:30:40.299Z,380
2017-11-26T14:31:40.339Z,356
2017-11-26T14:32:40.105Z,344
2017-11-26T14:33:40.384Z,340
2017-11-26T14:34:40.398Z,332
2017-11-26T14:36:40.434Z,264
2017-11-26T14:37:40.431Z,228
2017-11-26T14:38:40.446Z,200
2017-11-26T14:39:40.452Z,180
2017-11-26T14:40:40.507Z,168